createdAt,value
2022-11-16T00:01:12.482Z,-2.97
2022-11-16T00:03:40.342Z,-2.98
2022-11-16T00:06:08.928Z,-3.00
2022-11-16T00:08:38.343Z,-3.17
2022-11-16T00:11:09.439Z,-3.02
2022-11-16T00:13:38.508Z,-3.08
2022-11-16T00:16:07.116Z,-3.06
2022-11-16T00:18:35.154Z,-3.10
2022-11-16T00:21:04.594Z,-3.16
2022-11-16T00:23:32.655Z,-3.17
2022-11-16T00:26:04.289Z,-3.19
2022-11-16T00:28:33.711Z,-3.24
2022-11-16T00:31:03.581Z,-3.22
2022-11-16T00:33:31.119Z,-3.23
2022-11-16T00:36:00.646Z,-3.23
2022-11-16T00:38:28.701Z,-3.23
2022-11-16T00:40:56.106Z,-3.21
2022-11-16T00:43:23.454Z,-3.22
2022-11-16T00:45:52.236Z,-3.22
2022-11-16T00:48:19.670Z,-3.19
2022-11-16T00:50:47.650Z,-3.18
2022-11-16T00:53:17.238Z,-3.23
2022-11-16T00:55:46.343Z,-3.19
2022-11-16T00:58:16.042Z,-3.21
2022-11-16T01:00:45.820Z,-3.28
2022-11-16T01:03:14.483Z,-3.23
2022-11-16T01:05:41.876Z,-3.20
2022-11-16T01:08:09.197Z,-3.17
2022-11-16T01:10:40.200Z,-3.21
2022-11-16T01:13:11.793Z,-3.15
2022-11-16T01:15:39.048Z,-3.13
2022-11-16T01:18:06.460Z,-3.13
2022-11-16T01:20:35.204Z,-3.11
2022-11-16T01:23:02.418Z,-3.12
2022-11-16T01:25:29.888Z,-3.19
2022-11-16T01:27:57.358Z,-3.23
2022-11-16T01:30:33.801Z,-3.25
2022-11-16T01:33:05.388Z,-3.19
2022-11-16T01:35:33.982Z,-3.18
2022-11-16T01:38:01.538Z,-3.14
2022-11-16T01:40:29.092Z,-3.11
2022-11-16T01:42:56.974Z,-3.09
2022-11-16T01:45:34.855Z,-3.13
2022-11-16T01:48:05.804Z,-3.27
2022-11-16T01:50:36.869Z,-3.28
2022-11-16T01:53:06.444Z,-3.30
2022-11-16T01:55:47.697Z,-3.28
2022-11-16T01:58:28.880Z,-3.29
2022-11-16T02:01:09.081Z,-3.26
2022-11-16T02:03:44.466Z,-3.22
2022-11-16T02:06:32.416Z,-3.20
2022-11-16T02:09:53.824Z,-3.19
2022-11-16T02:12:52.156Z,-3.23
2022-11-16T02:15:29.561Z,-3.30
2022-11-16T02:18:21.635Z,-3.22
2022-11-16T02:21:04.737Z,-3.23
2022-11-16T02:24:04.727Z,-3.21
2022-11-16T02:26:53.246Z,-3.26
2022-11-16T02:29:28.544Z,-3.29
2022-11-16T02:32:02.196Z,-3.31
2022-11-16T02:34:34.394Z,-3.38
2022-11-16T02:37:04.748Z,-3.26
2022-11-16T02:39:34.854Z,-3.40
2022-11-16T02:42:08.468Z,-3.30
2022-11-16T02:44:40.441Z,-3.27
2022-11-16T02:47:13.886Z,-3.26
2022-11-16T02:49:45.392Z,-3.26
2022-11-16T02:52:15.966Z,-3.29
2022-11-16T02:54:43.459Z,-3.33
2022-11-16T02:57:44.690Z,-3.37
2022-11-16T03:00:21.716Z,-3.35
2022-11-16T03:03:00.350Z,-3.38
2022-11-16T03:05:33.621Z,-3.52
2022-11-16T03:08:13.395Z,-3.36
2022-11-16T03:11:01.980Z,-3.37
2022-11-16T03:13:33.794Z,-3.31
2022-11-16T03:16:08.513Z,-3.30
2022-11-16T03:18:39.399Z,-3.27
2022-11-16T03:21:14.516Z,-3.33
2022-11-16T03:23:45.264Z,-3.38
2022-11-16T03:26:16.687Z,-3.31
2022-11-16T03:28:51.117Z,-3.35
2022-11-16T03:31:25.694Z,-3.33
2022-11-16T03:33:56.369Z,-3.34
2022-11-16T03:36:30.628Z,-3.36
2022-11-16T03:39:02.239Z,-3.43
2022-11-16T03:41:33.374Z,-3.45
2022-11-16T03:44:01.179Z,-3.47
2022-11-16T03:46:30.095Z,-3.47
2022-11-16T03:48:59.314Z,-3.50
2022-11-16T03:51:30.262Z,-3.56
2022-11-16T03:53:58.583Z,-3.60
2022-11-16T03:56:26.118Z,-3.65
2022-11-16T03:58:53.305Z,-3.64
2022-11-16T04:01:20.642Z,-3.62
2022-11-16T04:03:50.254Z,-3.61
2022-11-16T04:06:38.054Z,-3.66
2022-11-16T04:09:25.005Z,-3.68
2022-11-16T04:12:11.330Z,-3.66
2022-11-16T04:14:58.406Z,-3.59
2022-11-16T04:17:48.423Z,-3.61
2022-11-16T04:20:36.191Z,-3.54
2022-11-16T04:23:25.896Z,-3.59
2022-11-16T04:25:53.545Z,-3.58
2022-11-16T04:28:25.278Z,-3.76
2022-11-16T04:31:17.076Z,-3.89
2022-11-16T04:34:30.845Z,-3.79
2022-11-16T04:37:19.164Z,-3.81
2022-11-16T04:39:47.804Z,-3.84
2022-11-16T04:42:15.649Z,-3.85
2022-11-16T04:45:04.085Z,-3.84
2022-11-16T04:47:40.892Z,-3.76
2022-11-16T04:50:08.691Z,-3.75
2022-11-16T04:52:37.682Z,-3.73
2022-11-16T04:55:08.138Z,-3.69
2022-11-16T04:57:35.976Z,-3.69
2022-11-16T05:00:06.353Z,-3.66
2022-11-16T05:02:35.662Z,-3.65
2022-11-16T05:05:03.396Z,-3.66
2022-11-16T05:07:31.765Z,-3.65
2022-11-16T05:10:09.984Z,-3.70
2022-11-16T05:12:38.508Z,-3.67
2022-11-16T05:15:09.082Z,-3.67
2022-11-16T05:17:36.657Z,-3.76
2022-11-16T05:20:28.332Z,-3.83
2022-11-16T05:23:00.963Z,-3.85
2022-11-16T05:25:36.775Z,-3.89
2022-11-16T05:28:07.311Z,-3.92
2022-11-16T05:30:38.711Z,-3.95
2022-11-16T05:33:05.918Z,-3.99
2022-11-16T05:35:38.027Z,-4.01
2022-11-16T05:38:05.374Z,-3.98
2022-11-16T05:40:38.831Z,-4.03
2022-11-16T05:43:06.467Z,-4.04
2022-11-16T05:45:39.690Z,-4.03
2022-11-16T05:48:08.902Z,-4.07
2022-11-16T05:50:42.302Z,-3.95
2022-11-16T05:53:19.797Z,-4.00
2022-11-16T05:55:49.463Z,-4.00
2022-11-16T05:58:18.139Z,-3.98
2022-11-16T06:00:46.361Z,-3.95
2022-11-16T06:03:14.222Z,-3.87
2022-11-16T06:05:41.752Z,-3.85
2022-11-16T06:08:12.030Z,-3.85
2022-11-16T06:10:39.430Z,-3.80
2022-11-16T06:13:08.155Z,-3.77
2022-11-16T06:15:37.408Z,-3.84
2022-11-16T06:18:05.293Z,-3.86
2022-11-16T06:20:33.026Z,-3.86
2022-11-16T06:23:00.362Z,-3.89
2022-11-16T06:25:30.941Z,-3.86
2022-11-16T06:27:58.722Z,-3.84
2022-11-16T06:30:27.735Z,-3.84
2022-11-16T06:32:55.566Z,-3.72
2022-11-16T06:35:22.979Z,-3.70
2022-11-16T06:37:50.547Z,-3.66
2022-11-16T06:40:18.187Z,-3.61
2022-11-16T06:42:45.483Z,-3.57
2022-11-16T06:45:14.257Z,-3.50
2022-11-16T06:47:47.830Z,-3.42
2022-11-16T06:50:19.310Z,-3.34
2022-11-16T06:52:47.910Z,-3.15
2022-11-16T06:55:16.610Z,-2.94
2022-11-16T06:57:44.351Z,-2.91
2022-11-16T07:00:12.628Z,-2.97
2022-11-16T07:02:41.102Z,-2.86
2022-11-16T07:05:14.433Z,-2.78
2022-11-16T07:07:42.534Z,-2.70
2022-11-16T07:10:10.652Z,-2.54
2022-11-16T07:12:38.288Z,-2.42
2022-11-16T07:15:07.646Z,-2.32
2022-11-16T07:17:38.871Z,-2.20
2022-11-16T07:20:07.105Z,-2.06
2022-11-16T07:22:35.873Z,-1.98
2022-11-16T07:25:04.189Z,-1.87
2022-11-16T07:27:31.463Z,-1.90
2022-11-16T07:29:59.137Z,-1.79
2022-11-16T07:32:43.094Z,-1.58
2022-11-16T07:35:19.866Z,-1.45
2022-11-16T07:37:48.689Z,-1.54
2022-11-16T07:40:16.756Z,-1.57
2022-11-16T07:42:45.902Z,-1.61
2022-11-16T07:45:34.134Z,-1.71
2022-11-16T07:48:07.158Z,-1.55
2022-11-16T07:51:01.080Z,-1.42
2022-11-16T07:53:31.815Z,-1.21
2022-11-16T07:55:59.503Z,-1.11
2022-11-16T07:58:30.758Z,-0.94
2022-11-16T08:01:04.991Z,-0.89
2022-11-16T08:03:34.325Z,-0.96
2022-11-16T08:06:06.590Z,-1.34
2022-11-16T08:08:35.777Z,-1.00
2022-11-16T08:11:04.963Z,-0.92
2022-11-16T08:13:35.216Z,-1.01
2022-11-16T08:16:07.914Z,-1.08
2022-11-16T08:18:36.386Z,-1.02
2022-11-16T08:21:05.445Z,-1.11
2022-11-16T08:23:33.119Z,-1.14
2022-11-16T08:26:03.887Z,-1.20
2022-11-16T08:28:32.247Z,-1.12
2022-11-16T08:31:01.016Z,-0.92
2022-11-16T08:33:29.848Z,-0.98
2022-11-16T08:35:57.441Z,-1.16
2022-11-16T08:38:25.748Z,-1.09
2022-11-16T08:40:55.935Z,-0.99
2022-11-16T08:43:25.978Z,-1.01
2022-11-16T08:45:53.943Z,-0.96
2022-11-16T08:48:22.259Z,-1.00
2022-11-16T08:51:15.870Z,-0.88
2022-11-16T08:53:37.152Z,-0.83
2022-11-16T08:56:05.463Z,-0.80
2022-11-16T08:58:34.604Z,-0.78
2022-11-16T09:01:07.949Z,-0.78
2022-11-16T09:03:35.302Z,-0.82
2022-11-16T09:06:02.682Z,-0.75
2022-11-16T09:08:30.167Z,-0.59
2022-11-16T09:10:57.625Z,-0.52
2022-11-16T09:13:25.490Z,-0.43
2022-11-16T09:15:57.681Z,-0.18
2022-11-16T09:18:25.402Z,-0.11
2022-11-16T09:20:52.687Z,0.02
2022-11-16T09:23:25.115Z,0.09
2022-11-16T09:25:52.718Z,0.21
2022-11-16T09:28:21.112Z,0.30
2022-11-16T09:30:50.581Z,0.45
2022-11-16T09:33:19.410Z,0.67
2022-11-16T09:35:47.257Z,0.75
2022-11-16T09:38:20.702Z,0.94
2022-11-16T09:40:54.387Z,1.05
2022-11-16T09:43:42.465Z,1.21
2022-11-16T09:46:21.991Z,1.30
2022-11-16T09:48:52.183Z,1.51
2022-11-16T09:51:22.496Z,1.67
2022-11-16T09:53:56.461Z,1.85
2022-11-16T09:56:25.988Z,2.01
2022-11-16T09:58:58.797Z,2.22
2022-11-16T10:01:29.988Z,2.35
2022-11-16T10:04:06.733Z,2.22
2022-11-16T10:06:44.953Z,1.84
2022-11-16T10:09:13.591Z,1.57
2022-11-16T10:11:59.989Z,1.38
2022-11-16T10:15:01.668Z,1.26
2022-11-16T10:17:43.464Z,1.24
2022-11-16T10:20:33.906Z,1.21
2022-11-16T10:23:10.241Z,1.43
2022-11-16T10:25:43.815Z,1.51
2022-11-16T10:28:26.546Z,1.43
2022-11-16T10:31:00.271Z,1.54
2022-11-16T10:33:35.957Z,1.40
2022-11-16T10:36:12.000Z,1.17
2022-11-16T10:38:40.556Z,0.80
2022-11-16T10:41:18.030Z,0.72
2022-11-16T10:43:45.921Z,0.79
2022-11-16T10:46:20.284Z,0.79
2022-11-16T10:48:56.331Z,0.90
2022-11-16T10:51:25.052Z,0.92
2022-11-16T10:53:53.301Z,0.89
2022-11-16T10:56:24.062Z,0.76
2022-11-16T10:58:56.729Z,0.53
2022-11-16T11:01:36.537Z,0.35
2022-11-16T11:04:16.620Z,0.18
2022-11-16T11:06:46.914Z,0.15
2022-11-16T11:09:24.127Z,0.00
2022-11-16T11:12:18.454Z,0.03
2022-11-16T11:15:01.480Z,-0.06
2022-11-16T11:17:32.418Z,0.13
2022-11-16T11:20:02.176Z,0.15
2022-11-16T11:22:33.117Z,0.19
2022-11-16T11:25:03.656Z,0.23
2022-11-16T11:27:34.406Z,0.21
2022-11-16T11:30:02.153Z,0.24
2022-11-16T11:32:34.808Z,0.22
2022-11-16T11:35:03.720Z,0.24
2022-11-16T11:37:36.013Z,0.23
2022-11-16T11:40:24.031Z,0.10
2022-11-16T11:42:59.612Z,0.18
2022-11-16T11:45:36.867Z,0.17
2022-11-16T11:48:12.263Z,0.11
2022-11-16T11:50:46.015Z,0.14
2022-11-16T11:53:29.272Z,0.13
2022-11-16T11:55:58.467Z,0.05
2022-11-16T11:58:30.319Z,-0.03
2022-11-16T12:01:17.433Z,-0.03
2022-11-16T12:04:30.134Z,0.04
2022-11-16T12:07:07.890Z,-0.01
2022-11-16T12:09:46.484Z,0.00
2022-11-16T12:12:28.881Z,-0.02
2022-11-16T12:15:08.200Z,-0.11
2022-11-16T12:17:48.919Z,-0.16
2022-11-16T12:20:28.449Z,-0.23
2022-11-16T12:23:07.196Z,-0.23
2022-11-16T12:25:43.282Z,-0.42
2022-11-16T12:28:29.751Z,-0.42
2022-11-16T12:31:11.382Z,-0.36
2022-11-16T12:33:49.036Z,-0.30
2022-11-16T12:36:38.358Z,-0.39
2022-11-16T12:39:20.596Z,-0.39
2022-11-16T12:42:18.536Z,-0.35
2022-11-16T12:45:11.178Z,-0.32
2022-11-16T12:48:00.547Z,-0.31
2022-11-16T12:50:43.916Z,-0.32
2022-11-16T12:53:23.835Z,-0.35
2022-11-16T12:56:01.145Z,-0.47
2022-11-16T12:58:39.423Z,-0.40
2022-11-16T13:01:18.102Z,-0.46
2022-11-16T13:03:50.970Z,-0.44
2022-11-16T13:06:20.531Z,-0.44
2022-11-16T13:08:55.765Z,-0.66
2022-11-16T13:11:27.460Z,-0.53
2022-11-16T13:14:00.993Z,-0.77
2022-11-16T13:16:29.667Z,-0.72
2022-11-16T13:18:58.615Z,-0.75
2022-11-16T13:21:34.763Z,-0.74
2022-11-16T13:24:23.863Z,-0.72
2022-11-16T13:26:59.232Z,-0.74
2022-11-16T13:29:36.300Z,-0.71
2022-11-16T13:32:11.266Z,-1.22
2022-11-16T13:34:40.299Z,-0.81
2022-11-16T13:37:40.801Z,-0.83
2022-11-16T13:40:26.446Z,-0.91
2022-11-16T13:43:08.712Z,-0.95
2022-11-16T13:45:41.758Z,-1.01
2022-11-16T13:48:18.606Z,-0.97
2022-11-16T13:50:52.940Z,-1.05
2022-11-16T13:56:16.126Z,-1.06
2022-11-16T13:58:46.653Z,-1.03
2022-11-16T14:01:16.529Z,-1.02
2022-11-16T14:03:45.060Z,-1.11
2022-11-16T14:06:44.541Z,-1.09
2022-11-16T14:09:42.785Z,-1.13
2022-11-16T14:12:55.968Z,-1.03
2022-11-16T14:15:32.012Z,-1.02
2022-11-16T14:18:31.897Z,-1.04
2022-11-16T14:21:03.268Z,-1.07
2022-11-16T14:23:52.038Z,-1.10
2022-11-16T14:26:24.667Z,-1.16
2022-11-16T14:29:25.328Z,-1.19
2022-11-16T14:31:55.060Z,-1.21
2022-11-16T14:34:28.330Z,-1.30
2022-11-16T14:36:56.239Z,-1.19
2022-11-16T14:39:33.785Z,-1.17
2022-11-16T14:42:04.603Z,-1.21
2022-11-16T14:44:37.793Z,-1.21
2022-11-16T14:47:06.316Z,-1.24
2022-11-16T14:49:37.787Z,-1.32
2022-11-16T14:52:08.371Z,-1.36
2022-11-16T14:54:41.652Z,-1.38
2022-11-16T14:57:18.030Z,-1.45
2022-11-16T14:59:45.618Z,-1.47
2022-11-16T15:02:19.299Z,-1.52
2022-11-16T15:04:48.785Z,-1.55
2022-11-16T15:07:18.493Z,-1.63
2022-11-16T15:09:49.885Z,-1.61
2022-11-16T15:12:37.996Z,-1.66
2022-11-16T15:15:13.506Z,-1.76
2022-11-16T15:17:43.069Z,-1.78
2022-11-16T15:20:20.014Z,-1.87
2022-11-16T15:22:50.638Z,-1.95
2022-11-16T15:25:28.944Z,-1.94
2022-11-16T15:27:58.203Z,-1.84
2022-11-16T15:30:28.107Z,-1.97
2022-11-16T15:32:55.811Z,-1.95
2022-11-16T15:35:28.405Z,-2.05
2022-11-16T15:38:03.066Z,-2.03
2022-11-16T15:40:30.837Z,-2.09
2022-11-16T15:43:00.915Z,-2.15
2022-11-16T15:45:29.778Z,-2.20
2022-11-16T15:48:00.637Z,-2.27
2022-11-16T15:50:29.671Z,-2.31
2022-11-16T15:52:59.785Z,-2.31
2022-11-16T15:55:36.887Z,-2.33
2022-11-16T15:58:07.509Z,-2.41
2022-11-16T16:00:36.661Z,-2.43
2022-11-16T16:03:08.192Z,-2.59
2022-11-16T16:05:39.850Z,-2.52
2022-11-16T16:08:25.623Z,-2.61
2022-11-16T16:11:27.534Z,-2.57
2022-11-16T16:13:59.015Z,-2.59
2022-11-16T16:16:30.272Z,-2.58
2022-11-16T16:19:04.929Z,-2.59
2022-11-16T16:21:45.005Z,-2.64
2022-11-16T16:24:36.336Z,-2.46
2022-11-16T16:27:10.498Z,-2.49
2022-11-16T16:29:38.495Z,-2.52
2022-11-16T16:32:06.610Z,-2.53
2022-11-16T16:34:37.784Z,-2.53
2022-11-16T16:37:11.923Z,-2.53
2022-11-16T16:39:40.743Z,-2.45
2022-11-16T16:42:12.438Z,-2.44
2022-11-16T16:44:39.885Z,-2.41
2022-11-16T16:47:08.124Z,-2.47
2022-11-16T16:49:35.785Z,-2.54
2022-11-16T16:52:04.537Z,-2.68
2022-11-16T16:54:33.909Z,-2.79
2022-11-16T16:57:04.204Z,-2.84
2022-11-16T16:59:31.920Z,-2.84
2022-11-16T17:01:59.979Z,-2.91
2022-11-16T17:04:27.501Z,-2.83
2022-11-16T17:06:54.870Z,-2.81
2022-11-16T17:09:22.776Z,-2.87
2022-11-16T17:11:51.351Z,-2.88
2022-11-16T17:14:19.917Z,-2.87
2022-11-16T17:16:47.998Z,-2.89
2022-11-16T17:19:15.348Z,-2.98
2022-11-16T17:21:42.716Z,-3.14
2022-11-16T17:24:11.045Z,-3.23
2022-11-16T17:26:38.649Z,-3.30
2022-11-16T17:29:07.281Z,-3.31
2022-11-16T17:31:35.059Z,-3.31
2022-11-16T17:34:02.581Z,-3.38
2022-11-16T17:36:29.810Z,-3.35
2022-11-16T17:38:58.164Z,-3.35
2022-11-16T17:41:25.905Z,-3.35
2022-11-16T17:43:55.987Z,-3.38
2022-11-16T17:46:26.964Z,-3.43
2022-11-16T17:48:54.224Z,-3.46
2022-11-16T17:51:24.215Z,-3.49
2022-11-16T17:53:51.995Z,-3.52
2022-11-16T17:56:21.873Z,-3.61
2022-11-16T17:58:52.956Z,-3.70
2022-11-16T18:01:20.753Z,-3.75
2022-11-16T18:03:49.639Z,-3.77
2022-11-16T18:06:18.900Z,-3.79
2022-11-16T18:08:46.714Z,-3.77
2022-11-16T18:11:16.467Z,-3.75
2022-11-16T18:13:44.424Z,-3.70
2022-11-16T18:16:14.006Z,-3.72
2022-11-16T18:18:42.728Z,-3.62
2022-11-16T18:21:20.013Z,-3.61
2022-11-16T18:23:48.382Z,-3.62
2022-11-16T18:26:17.502Z,-3.64
2022-11-16T18:28:48.380Z,-3.63
2022-11-16T18:31:18.071Z,-3.59
2022-11-16T18:33:45.721Z,-3.64
2022-11-16T18:36:15.081Z,-3.68
2022-11-16T18:38:42.830Z,-3.77
2022-11-16T18:41:17.436Z,-3.99
2022-11-16T18:43:51.022Z,-3.89
2022-11-16T18:46:19.200Z,-3.89
2022-11-16T18:48:47.312Z,-3.89
2022-11-16T18:51:17.887Z,-3.95
2022-11-16T18:53:45.724Z,-4.01
2022-11-16T18:56:13.831Z,-4.06
2022-11-16T18:58:50.283Z,-4.12
2022-11-16T19:01:20.910Z,-4.19
2022-11-16T19:03:48.267Z,-4.19
2022-11-16T19:06:18.110Z,-4.14
2022-11-16T19:08:51.830Z,-4.11
2022-11-16T19:11:24.085Z,-4.14
2022-11-16T19:13:53.428Z,-4.23
2022-11-16T19:16:20.888Z,-4.13
2022-11-16T19:18:48.574Z,-4.13
2022-11-16T19:21:21.954Z,-4.13
2022-11-16T19:23:50.989Z,-4.14
2022-11-16T19:26:21.938Z,-4.16
2022-11-16T19:28:51.061Z,-4.09
2022-11-16T19:31:21.844Z,-4.13
2022-11-16T19:33:54.013Z,-4.11
2022-11-16T19:36:23.481Z,-4.12
2022-11-16T19:38:50.966Z,-4.17
2022-11-16T19:41:22.694Z,-4.16
2022-11-16T19:43:52.842Z,-4.17
2022-11-16T19:46:24.463Z,-4.18
2022-11-16T19:48:52.243Z,-4.09
2022-11-16T19:51:21.976Z,-4.16
2022-11-16T19:53:50.804Z,-3.99
2022-11-16T19:56:20.063Z,-4.00
2022-11-16T19:58:47.941Z,-3.95
2022-11-16T20:01:17.374Z,-3.93
2022-11-16T20:03:45.934Z,-3.91
2022-11-16T20:06:15.209Z,-3.89
2022-11-16T20:08:46.588Z,-3.86
2022-11-16T20:11:17.321Z,-3.82
2022-11-16T20:13:44.858Z,-3.78
2022-11-16T20:16:13.501Z,-3.74
2022-11-16T20:18:42.576Z,-3.74
2022-11-16T20:21:13.420Z,-3.93
2022-11-16T20:23:40.731Z,-3.80
2022-11-16T20:26:09.989Z,-4.04
2022-11-16T20:28:40.389Z,-3.75
2022-11-16T20:31:09.010Z,-3.77
2022-11-16T20:33:36.954Z,-3.61
2022-11-16T20:36:06.572Z,-3.60
2022-11-16T20:38:34.380Z,-3.58
2022-11-16T20:41:08.645Z,-3.54
2022-11-16T20:43:36.324Z,-3.51
2022-11-16T20:46:05.565Z,-3.48
2022-11-16T20:48:32.945Z,-3.45
2022-11-16T20:51:00.145Z,-3.41
2022-11-16T20:53:27.734Z,-3.41
2022-11-16T20:55:57.543Z,-3.41
2022-11-16T20:58:25.266Z,-3.34
2022-11-16T21:00:52.632Z,-3.33
2022-11-16T21:03:21.393Z,-3.32
2022-11-16T21:05:52.498Z,-3.35
2022-11-16T21:08:19.849Z,-3.32
2022-11-16T21:10:48.497Z,-3.32
2022-11-16T21:13:36.893Z,-3.32
2022-11-16T21:16:06.841Z,-3.36
2022-11-16T21:18:35.568Z,-3.37
2022-11-16T21:21:04.804Z,-3.37
2022-11-16T21:23:34.795Z,-3.37
2022-11-16T21:26:03.376Z,-3.35
2022-11-16T21:28:30.578Z,-3.34
2022-11-16T21:30:58.646Z,-3.33
2022-11-16T21:33:26.152Z,-3.27
2022-11-16T21:35:55.233Z,-3.27
2022-11-16T21:38:25.684Z,-3.25
2022-11-16T21:40:52.930Z,-3.27
2022-11-16T21:43:20.101Z,-3.26
2022-11-16T21:45:48.438Z,-3.28
2022-11-16T21:48:15.686Z,-3.27
2022-11-16T21:50:43.545Z,-3.27
2022-11-16T21:53:12.165Z,-3.24
2022-11-16T21:55:39.539Z,-3.23
2022-11-16T21:58:06.972Z,-3.21
2022-11-16T22:00:34.294Z,-3.21
2022-11-16T22:03:01.835Z,-3.16
2022-11-16T22:05:47.576Z,-3.14
2022-11-16T22:08:16.207Z,-3.14
2022-11-16T22:10:43.751Z,-3.16
2022-11-16T22:13:11.123Z,-3.27
2022-11-16T22:15:38.574Z,-3.16
2022-11-16T22:18:06.080Z,-3.14
2022-11-16T22:20:33.533Z,-3.14
2022-11-16T22:23:00.879Z,-3.10
2022-11-16T22:25:29.662Z,-3.11
2022-11-16T22:28:25.991Z,-3.11
2022-11-16T22:30:48.739Z,-3.06
2022-11-16T22:33:18.767Z,-3.06
2022-11-16T22:35:47.236Z,-3.05
2022-11-16T22:38:14.443Z,-3.02
2022-11-16T22:40:48.868Z,-2.99
2022-11-16T22:43:16.168Z,-3.00
2022-11-16T22:45:43.514Z,-2.98
2022-11-16T22:48:10.882Z,-2.97
2022-11-16T22:50:38.127Z,-2.93
2022-11-16T22:53:05.391Z,-2.93
2022-11-16T22:55:35.135Z,-3.00
2022-11-16T22:58:04.108Z,-2.90
2022-11-16T23:00:33.388Z,-2.90
2022-11-16T23:03:04.183Z,-2.91
2022-11-16T23:05:31.485Z,-2.85
2022-11-16T23:07:59.094Z,-2.82
2022-11-16T23:10:26.402Z,-2.81
2022-11-16T23:13:12.692Z,-2.81
2022-11-16T23:15:50.090Z,-2.77
2022-11-16T23:18:19.659Z,-2.79
2022-11-16T23:21:05.546Z,-2.80
2022-11-16T23:23:51.522Z,-2.82
2022-11-16T23:26:41.813Z,-3.10
2022-11-16T23:29:10.718Z,-2.89
2022-11-16T23:31:39.337Z,-2.89
2022-11-16T23:34:06.723Z,-2.89
2022-11-16T23:36:34.049Z,-2.90
2022-11-16T23:39:01.299Z,-2.88
2022-11-16T23:41:47.701Z,-2.89
2022-11-16T23:44:14.680Z,-2.86
2022-11-16T23:46:43.408Z,-2.87
2022-11-16T23:49:10.658Z,-2.89
2022-11-16T23:51:37.908Z,-2.88
2022-11-16T23:54:06.907Z,-2.87
2022-11-16T23:56:34.128Z,-2.85
2022-11-16T23:59:01.500Z,-2.86
